Mahlon Sweet Field Eugene US
ICAO: KEUG
IATA: EUG
Category: Medium
Scheduled Services: Yes

Elevation: 374 ft
TransAlt. 18000 ft.

Airport Communications:
CASCADE APP/DEP:119.6
ATIS:125.225
EUGENE CLNC DEL:121.7
CTAF:118.9
GND:121.7
MC MINNVILLE RDO:122.3
EUGENE TWR:118.9
UNICOM:122.95

KEUG Zoom In..

If you have problems with the map follow the link
https://www.worldairports.se/pages/airport.php?
ICAO=KEUG

Runways:

(A) RW 16L length 6000 ft width 150 ft
ILS 111.75 / hdg 163

(B) RW 16R length 8009 ft width 150 ft
ILS 110.10 / hdg 163

(C) RW 34L length 8009 ft width 150 ft
---- / hdg 343

(D) RW 34R length 6000 ft width 150 ft
---- / hdg 343

Location; KEUG
Day. 13 / Time. 12.54 Zulu
* Altimeter: 30.17
* Temperature: 08° c. 46.4°f.
* Wind from: 140° Speed 05 kn.
Dewpoint: 07° c.
Visibility: 10 Statute Miles.
Clouds: Scattered 3200 ft.
Clouds: Broken 4600 ft.

KEUG 131254Z AUTO 14005KT 10SM SCT032 BKN046 08/07 A3017 RMK AO2 RAB21E31 CIG 037 RNW 34 SLP216 P0000 T00780067


Wind From 140°
Speed 05 kn.

 
 
jpsmedia worldairports.se 2019   terms of use